Troyes-Barberey Airport

Airport
ICAO code: 
LFQB
IATA Code: 
QYR
Summary
ICAO Region: 
EUR
Territory: 
Location: 
, Champagne-Ardenne
Serving: 
Troyes
Elevation: 
388 ft
Coordinates: 
Aerial View: 
48° 19' 19.69" N, 4° 1' 0.131" E
Metar
Observation
LFQB 302200Z AUTO 19010KT 9999 BKN011 OVC017 06/05 Q1015
Station
Troyes
Date/Time
2021-11-30 22:00:00
Wind direction
190°
Wind speed
10 kts
Lowest cloud amount
broken clouds
Temperature
6°C
Dew point
5°C
Humidity
93%
QNH
1015 hPa
Weather condition
n/a

Runways

Designator Length Width Surface Rops
5/23 780 100 GRS No/No
18R/36L 900 100 GRS No/No
18/36 1650 30 ASP No/No
Airport map: 
Aerial View: 

SKYbrary Partners:

Safety knowledge contributed by: